sensor_id;sensor_type;location;lat;lon;timestamp;temperature;humidity
11540;DHT22;5826;54.756;9.192;2023-10-13T00:02:02;9.50;85.00
11540;DHT22;5826;54.756;9.192;2023-10-13T00:04:30;9.50;85.00
11540;DHT22;5826;54.756;9.192;2023-10-13T00:06:58;9.50;85.00
11540;DHT22;5826;54.756;9.192;2023-10-13T00:09:28;9.50;85.00
11540;DHT22;5826;54.756;9.192;2023-10-13T00:12:04;9.50;84.80
11540;DHT22;5826;54.756;9.192;2023-10-13T00:14:34;9.50;84.80
11540;DHT22;5826;54.756;9.192;2023-10-13T00:17:01;9.50;84.90
11540;DHT22;5826;54.756;9.192;2023-10-13T00:19:33;9.60;85.00
11540;DHT22;5826;54.756;9.192;2023-10-13T00:22:13;9.60;85.00
11540;DHT22;5826;54.756;9.192;2023-10-13T00:24:42;9.70;85.10
11540;DHT22;5826;54.756;9.192;2023-10-13T00:27:21;9.80;85.10
11540;DHT22;5826;54.756;9.192;2023-10-13T00:29:59;9.90;84.80
11540;DHT22;5826;54.756;9.192;2023-10-13T00:32:43;9.90;84.40
11540;DHT22;5826;54.756;9.192;2023-10-13T00:35:10;10.00;84.40
11540;DHT22;5826;54.756;9.192;2023-10-13T00:37:38;10.00;84.40
11540;DHT22;5826;54.756;9.192;2023-10-13T00:40:10;10.10;84.30
11540;DHT22;5826;54.756;9.192;2023-10-13T00:42:53;10.10;84.10
11540;DHT22;5826;54.756;9.192;2023-10-13T00:45:19;10.20;84.00
11540;DHT22;5826;54.756;9.192;2023-10-13T00:47:45;10.20;83.90
11540;DHT22;5826;54.756;9.192;2023-10-13T00:50:22;10.20;84.00
11540;DHT22;5826;54.756;9.192;2023-10-13T00:52:49;10.30;84.10
11540;DHT22;5826;54.756;9.192;2023-10-13T00:55:19;10.30;83.90
11540;DHT22;5826;54.756;9.192;2023-10-13T00:57:51;10.40;84.10
11540;DHT22;5826;54.756;9.192;2023-10-13T01:00:19;10.40;83.80
11540;DHT22;5826;54.756;9.192;2023-10-13T01:02:49;10.40;83.70
11540;DHT22;5826;54.756;9.192;2023-10-13T01:05:22;10.40;83.80
11540;DHT22;5826;54.756;9.192;2023-10-13T01:07:49;10.50;83.70
11540;DHT22;5826;54.756;9.192;2023-10-13T01:10:18;10.50;83.80
11540;DHT22;5826;54.756;9.192;2023-10-13T01:12:44;10.60;83.80
11540;DHT22;5826;54.756;9.192;2023-10-13T01:15:11;10.60;83.90
11540;DHT22;5826;54.756;9.192;2023-10-13T01:17:39;10.60;83.70
11540;DHT22;5826;54.756;9.192;2023-10-13T01:20:04;10.60;83.70
11540;DHT22;5826;54.756;9.192;2023-10-13T01:22:31;10.70;83.70
11540;DHT22;5826;54.756;9.192;2023-10-13T01:24:57;10.70;83.80
11540;DHT22;5826;54.756;9.192;2023-10-13T01:27:30;10.70;83.70
11540;DHT22;5826;54.756;9.192;2023-10-13T01:29:56;10.80;83.80
11540;DHT22;5826;54.756;9.192;2023-10-13T01:32:24;10.80;83.80
11540;DHT22;5826;54.756;9.192;2023-10-13T01:34:50;10.80;83.80
11540;DHT22;5826;54.756;9.192;2023-10-13T01:37:20;10.80;84.00
11540;DHT22;5826;54.756;9.192;2023-10-13T01:39:47;10.90;83.70
11540;DHT22;5826;54.756;9.192;2023-10-13T01:42:17;10.90;83.70
11540;DHT22;5826;54.756;9.192;2023-10-13T01:44:47;10.90;83.60
11540;DHT22;5826;54.756;9.192;2023-10-13T01:47:13;11.00;84.00
11540;DHT22;5826;54.756;9.192;2023-10-13T01:49:39;11.00;83.60
11540;DHT22;5826;54.756;9.192;2023-10-13T01:52:11;11.00;83.60
11540;DHT22;5826;54.756;9.192;2023-10-13T01:54:38;11.00;83.70
11540;DHT22;5826;54.756;9.192;2023-10-13T01:57:09;11.00;83.50
11540;DHT22;5826;54.756;9.192;2023-10-13T01:59:42;11.10;83.60
11540;DHT22;5826;54.756;9.192;2023-10-13T02:02:12;11.10;83.50
11540;DHT22;5826;54.756;9.192;2023-10-13T02:04:41;11.20;83.50
11540;DHT22;5826;54.756;9.192;2023-10-13T02:07:08;11.20;83.50
11540;DHT22;5826;54.756;9.192;2023-10-13T02:09:34;11.20;83.50
11540;DHT22;5826;54.756;9.192;2023-10-13T02:12:02;11.20;83.50
11540;DHT22;5826;54.756;9.192;2023-10-13T02:14:28;11.30;83.40
11540;DHT22;5826;54.756;9.192;2023-10-13T02:16:53;11.30;83.30
11540;DHT22;5826;54.756;9.192;2023-10-13T02:19:38;11.30;83.30
11540;DHT22;5826;54.756;9.192;2023-10-13T02:22:06;11.40;83.20
11540;DHT22;5826;54.756;9.192;2023-10-13T02:24:35;11.40;83.30
11540;DHT22;5826;54.756;9.192;2023-10-13T02:27:08;11.40;83.20
11540;DHT22;5826;54.756;9.192;2023-10-13T02:29:42;11.40;83.00
11540;DHT22;5826;54.756;9.192;2023-10-13T02:32:11;11.40;83.10
11540;DHT22;5826;54.756;9.192;2023-10-13T02:34:46;11.40;83.30
11540;DHT22;5826;54.756;9.192;2023-10-13T02:37:12;11.40;83.20
11540;DHT22;5826;54.756;9.192;2023-10-13T02:39:41;11.40;83.40
11540;DHT22;5826;54.756;9.192;2023-10-13T02:42:09;11.50;83.40
11540;DHT22;5826;54.756;9.192;2023-10-13T02:44:51;11.50;83.30
11540;DHT22;5826;54.756;9.192;2023-10-13T02:47:17;11.50;83.30
11540;DHT22;5826;54.756;9.192;2023-10-13T02:49:45;11.50;83.30
11540;DHT22;5826;54.756;9.192;2023-10-13T02:52:13;11.60;83.30
11540;DHT22;5826;54.756;9.192;2023-10-13T02:54:40;11.60;83.30
11540;DHT22;5826;54.756;9.192;2023-10-13T02:57:08;11.60;83.20
11540;DHT22;5826;54.756;9.192;2023-10-13T02:59:33;11.60;83.50
11540;DHT22;5826;54.756;9.192;2023-10-13T03:02:06;11.60;83.50
11540;DHT22;5826;54.756;9.192;2023-10-13T03:04:48;11.60;83.50
11540;DHT22;5826;54.756;9.192;2023-10-13T03:07:14;11.60;83.70
11540;DHT22;5826;54.756;9.192;2023-10-13T03:09:50;11.70;83.60
11540;DHT22;5826;54.756;9.192;2023-10-13T03:12:17;11.70;83.80
11540;DHT22;5826;54.756;9.192;2023-10-13T03:14:42;11.70;83.60
11540;DHT22;5826;54.756;9.192;2023-10-13T03:17:13;11.70;83.70
11540;DHT22;5826;54.756;9.192;2023-10-13T03:19:48;11.70;83.60
11540;DHT22;5826;54.756;9.192;2023-10-13T03:22:17;11.80;83.80
11540;DHT22;5826;54.756;9.192;2023-10-13T03:24:55;11.80;83.90
11540;DHT22;5826;54.756;9.192;2023-10-13T03:27:25;11.80;83.80
11540;DHT22;5826;54.756;9.192;2023-10-13T03:30:05;11.80;84.00
11540;DHT22;5826;54.756;9.192;2023-10-13T03:32:38;11.90;84.00
11540;DHT22;5826;54.756;9.192;2023-10-13T03:35:09;11.90;83.80
11540;DHT22;5826;54.756;9.192;2023-10-13T03:37:54;11.90;84.10
11540;DHT22;5826;54.756;9.192;2023-10-13T03:40:20;11.90;83.90
11540;DHT22;5826;54.756;9.192;2023-10-13T03:43:04;11.90;84.10
11540;DHT22;5826;54.756;9.192;2023-10-13T03:45:38;11.90;84.10
11540;DHT22;5826;54.756;9.192;2023-10-13T03:48:13;12.00;83.80
11540;DHT22;5826;54.756;9.192;2023-10-13T03:50:56;12.00;84.00
11540;DHT22;5826;54.756;9.192;2023-10-13T03:53:38;12.00;84.00
11540;DHT22;5826;54.756;9.192;2023-10-13T03:56:24;12.00;84.10
11540;DHT22;5826;54.756;9.192;2023-10-13T03:59:05;12.00;84.30
11540;DHT22;5826;54.756;9.192;2023-10-13T04:01:32;12.00;84.30
11540;DHT22;5826;54.756;9.192;2023-10-13T04:04:13;12.00;83.80
11540;DHT22;5826;54.756;9.192;2023-10-13T04:06:41;12.10;84.10
11540;DHT22;5826;54.756;9.192;2023-10-13T04:09:16;12.10;84.20
11540;DHT22;5826;54.756;9.192;2023-10-13T04:12:00;12.10;84.40
11540;DHT22;5826;54.756;9.192;2023-10-13T04:14:33;12.10;84.90
11540;DHT22;5826;54.756;9.192;2023-10-13T04:17:18;12.10;85.00
11540;DHT22;5826;54.756;9.192;2023-10-13T04:19:54;12.10;84.80
11540;DHT22;5826;54.756;9.192;2023-10-13T04:22:49;12.10;84.70
11540;DHT22;5826;54.756;9.192;2023-10-13T04:25:22;12.10;84.90
11540;DHT22;5826;54.756;9.192;2023-10-13T04:28:14;12.10;85.10
11540;DHT22;5826;54.756;9.192;2023-10-13T04:30:44;12.10;85.10
11540;DHT22;5826;54.756;9.192;2023-10-13T04:33:31;12.10;85.00
11540;DHT22;5826;54.756;9.192;2023-10-13T04:36:04;12.20;85.40
11540;DHT22;5826;54.756;9.192;2023-10-13T04:38:51;12.20;85.20
11540;DHT22;5826;54.756;9.192;2023-10-13T04:41:40;12.20;85.50
11540;DHT22;5826;54.756;9.192;2023-10-13T04:44:24;12.20;85.40
11540;DHT22;5826;54.756;9.192;2023-10-13T04:46:56;12.20;85.40
11540;DHT22;5826;54.756;9.192;2023-10-13T04:49:29;12.20;85.50
11540;DHT22;5826;54.756;9.192;2023-10-13T04:52:03;12.20;85.40
11540;DHT22;5826;54.756;9.192;2023-10-13T04:57:14;12.20;85.70
11540;DHT22;5826;54.756;9.192;2023-10-13T04:59:50;12.20;85.50
11540;DHT22;5826;54.756;9.192;2023-10-13T05:02:35;12.20;85.40
11540;DHT22;5826;54.756;9.192;2023-10-13T05:05:08;12.20;85.30
11540;DHT22;5826;54.756;9.192;2023-10-13T05:07:40;12.30;85.60
11540;DHT22;5826;54.756;9.192;2023-10-13T05:10:24;12.30;85.40
11540;DHT22;5826;54.756;9.192;2023-10-13T05:13:08;12.30;85.50
11540;DHT22;5826;54.756;9.192;2023-10-13T05:15:52;12.30;85.70
11540;DHT22;5826;54.756;9.192;2023-10-13T05:18:36;12.30;85.40
11540;DHT22;5826;54.756;9.192;2023-10-13T05:21:21;12.30;85.80
11540;DHT22;5826;54.756;9.192;2023-10-13T05:24:06;12.30;85.40
11540;DHT22;5826;54.756;9.192;2023-10-13T05:26:51;12.30;85.80
11540;DHT22;5826;54.756;9.192;2023-10-13T05:29:39;12.30;85.70
11540;DHT22;5826;54.756;9.192;2023-10-13T05:32:23;12.30;85.80
11540;DHT22;5826;54.756;9.192;2023-10-13T05:35:09;12.30;85.60
11540;DHT22;5826;54.756;9.192;2023-10-13T05:37:53;12.30;85.80
11540;DHT22;5826;54.756;9.192;2023-10-13T05:40:37;12.40;85.60
11540;DHT22;5826;54.756;9.192;2023-10-13T05:43:21;12.30;85.60
11540;DHT22;5826;54.756;9.192;2023-10-13T05:46:05;12.40;85.60
11540;DHT22;5826;54.756;9.192;2023-10-13T05:48:51;12.40;85.30
11540;DHT22;5826;54.756;9.192;2023-10-13T05:51:29;12.40;85.70
11540;DHT22;5826;54.756;9.192;2023-10-13T05:54:04;12.40;85.60
11540;DHT22;5826;54.756;9.192;2023-10-13T05:56:44;12.40;85.80
11540;DHT22;5826;54.756;9.192;2023-10-13T05:59:29;12.40;85.60
11540;DHT22;5826;54.756;9.192;2023-10-13T06:02:18;12.40;85.80
11540;DHT22;5826;54.756;9.192;2023-10-13T06:05:08;12.50;85.80
11540;DHT22;5826;54.756;9.192;2023-10-13T06:07:53;12.50;85.40
11540;DHT22;5826;54.756;9.192;2023-10-13T06:10:38;12.50;85.50
11540;DHT22;5826;54.756;9.192;2023-10-13T06:13:21;12.50;85.20
11540;DHT22;5826;54.756;9.192;2023-10-13T06:16:06;12.50;85.30
11540;DHT22;5826;54.756;9.192;2023-10-13T06:18:51;12.50;85.60
11540;DHT22;5826;54.756;9.192;2023-10-13T06:21:35;12.50;85.70
11540;DHT22;5826;54.756;9.192;2023-10-13T06:24:18;12.60;86.00
11540;DHT22;5826;54.756;9.192;2023-10-13T06:27:03;12.60;85.70
11540;DHT22;5826;54.756;9.192;2023-10-13T06:29:47;12.60;85.30
11540;DHT22;5826;54.756;9.192;2023-10-13T06:32:13;12.60;85.30
11540;DHT22;5826;54.756;9.192;2023-10-13T06:34:41;12.60;85.10
11540;DHT22;5826;54.756;9.192;2023-10-13T06:37:16;12.60;85.30
11540;DHT22;5826;54.756;9.192;2023-10-13T06:39:52;12.70;86.20
11540;DHT22;5826;54.756;9.192;2023-10-13T06:42:22;12.70;85.40
11540;DHT22;5826;54.756;9.192;2023-10-13T06:44:48;12.70;85.30
11540;DHT22;5826;54.756;9.192;2023-10-13T06:47:13;12.70;85.10
11540;DHT22;5826;54.756;9.192;2023-10-13T06:49:40;12.70;85.40
11540;DHT22;5826;54.756;9.192;2023-10-13T06:52:08;12.80;85.30
11540;DHT22;5826;54.756;9.192;2023-10-13T06:54:34;12.80;85.20
11540;DHT22;5826;54.756;9.192;2023-10-13T06:57:00;12.80;85.10
11540;DHT22;5826;54.756;9.192;2023-10-13T06:59:29;12.80;85.10
11540;DHT22;5826;54.756;9.192;2023-10-13T07:01:58;12.90;85.00
11540;DHT22;5826;54.756;9.192;2023-10-13T07:04:29;12.90;84.90
11540;DHT22;5826;54.756;9.192;2023-10-13T07:06:55;12.90;85.00
11540;DHT22;5826;54.756;9.192;2023-10-13T07:09:20;12.90;85.00
11540;DHT22;5826;54.756;9.192;2023-10-13T07:12:04;13.00;84.80
11540;DHT22;5826;54.756;9.192;2023-10-13T07:14:47;13.00;84.90
11540;DHT22;5826;54.756;9.192;2023-10-13T07:17:24;13.00;84.80
11540;DHT22;5826;54.756;9.192;2023-10-13T07:19:53;13.10;84.80
11540;DHT22;5826;54.756;9.192;2023-10-13T07:22:19;13.10;84.70
11540;DHT22;5826;54.756;9.192;2023-10-13T07:24:49;13.10;84.70
11540;DHT22;5826;54.756;9.192;2023-10-13T07:27:16;13.20;84.70
11540;DHT22;5826;54.756;9.192;2023-10-13T07:29:52;13.20;84.70
11540;DHT22;5826;54.756;9.192;2023-10-13T07:32:24;13.20;84.80
11540;DHT22;5826;54.756;9.192;2023-10-13T07:34:54;13.30;84.70
11540;DHT22;5826;54.756;9.192;2023-10-13T07:37:23;13.30;84.70
11540;DHT22;5826;54.756;9.192;2023-10-13T07:39:53;13.30;84.90
11540;DHT22;5826;54.756;9.192;2023-10-13T07:42:24;13.40;85.00
11540;DHT22;5826;54.756;9.192;2023-10-13T07:44:50;13.40;85.00
11540;DHT22;5826;54.756;9.192;2023-10-13T07:47:20;13.40;84.60
11540;DHT22;5826;54.756;9.192;2023-10-13T07:49:50;13.50;84.50
11540;DHT22;5826;54.756;9.192;2023-10-13T07:52:16;13.60;84.70
11540;DHT22;5826;54.756;9.192;2023-10-13T07:54:46;13.70;84.60
11540;DHT22;5826;54.756;9.192;2023-10-13T07:57:15;13.70;84.40
11540;DHT22;5826;54.756;9.192;2023-10-13T07:59:42;13.70;84.90
11540;DHT22;5826;54.756;9.192;2023-10-13T08:02:16;13.80;84.70
11540;DHT22;5826;54.756;9.192;2023-10-13T08:05:01;13.80;84.60
11540;DHT22;5826;54.756;9.192;2023-10-13T08:07:30;13.80;85.00
11540;DHT22;5826;54.756;9.192;2023-10-13T08:09:56;13.90;84.70
11540;DHT22;5826;54.756;9.192;2023-10-13T08:12:25;14.00;84.70
11540;DHT22;5826;54.756;9.192;2023-10-13T08:14:50;14.00;85.00
11540;DHT22;5826;54.756;9.192;2023-10-13T08:17:34;14.10;84.80
11540;DHT22;5826;54.756;9.192;2023-10-13T08:20:00;14.10;84.90
11540;DHT22;5826;54.756;9.192;2023-10-13T08:22:36;14.10;84.60
11540;DHT22;5826;54.756;9.192;2023-10-13T08:25:04;14.20;84.90
11540;DHT22;5826;54.756;9.192;2023-10-13T08:28:07;14.30;85.30
11540;DHT22;5826;54.756;9.192;2023-10-13T08:30:51;14.30;85.80
11540;DHT22;5826;54.756;9.192;2023-10-13T08:33:18;14.40;86.80
11540;DHT22;5826;54.756;9.192;2023-10-13T08:35:44;14.50;90.50
11540;DHT22;5826;54.756;9.192;2023-10-13T08:38:42;14.60;90.50
11540;DHT22;5826;54.756;9.192;2023-10-13T08:41:16;14.80;90.20
11540;DHT22;5826;54.756;9.192;2023-10-13T08:43:42;14.80;90.70
11540;DHT22;5826;54.756;9.192;2023-10-13T08:46:15;14.90;92.10
11540;DHT22;5826;54.756;9.192;2023-10-13T08:48:58;15.00;92.20
11540;DHT22;5826;54.756;9.192;2023-10-13T08:51:41;15.00;91.50
11540;DHT22;5826;54.756;9.192;2023-10-13T08:54:32;15.00;92.40
11540;DHT22;5826;54.756;9.192;2023-10-13T08:57:04;15.10;92.10
11540;DHT22;5826;54.756;9.192;2023-10-13T08:59:55;15.10;92.50
11540;DHT22;5826;54.756;9.192;2023-10-13T09:02:22;15.10;92.60
11540;DHT22;5826;54.756;9.192;2023-10-13T09:05:09;15.10;93.00
11540;DHT22;5826;54.756;9.192;2023-10-13T09:07:54;15.10;92.10
11540;DHT22;5826;54.756;9.192;2023-10-13T09:10:24;15.10;92.50
11540;DHT22;5826;54.756;9.192;2023-10-13T09:12:59;15.10;91.80
11540;DHT22;5826;54.756;9.192;2023-10-13T09:15:30;15.10;91.80
11540;DHT22;5826;54.756;9.192;2023-10-13T09:18:23;15.20;91.50
11540;DHT22;5826;54.756;9.192;2023-10-13T09:21:03;15.30;92.60
11540;DHT22;5826;54.756;9.192;2023-10-13T09:23:49;15.20;92.30
11540;DHT22;5826;54.756;9.192;2023-10-13T09:26:14;15.20;92.10
11540;DHT22;5826;54.756;9.192;2023-10-13T09:28:42;15.20;92.10
11540;DHT22;5826;54.756;9.192;2023-10-13T09:31:08;15.20;91.10
11540;DHT22;5826;54.756;9.192;2023-10-13T09:33:36;15.20;91.80
11540;DHT22;5826;54.756;9.192;2023-10-13T09:36:02;15.20;90.80
11540;DHT22;5826;54.756;9.192;2023-10-13T09:38:32;15.20;91.40
11540;DHT22;5826;54.756;9.192;2023-10-13T09:40:58;15.20;91.90
11540;DHT22;5826;54.756;9.192;2023-10-13T09:43:27;15.20;91.10
11540;DHT22;5826;54.756;9.192;2023-10-13T09:45:59;15.30;92.70
11540;DHT22;5826;54.756;9.192;2023-10-13T09:48:34;15.30;92.00
11540;DHT22;5826;54.756;9.192;2023-10-13T09:51:02;15.30;92.30
11540;DHT22;5826;54.756;9.192;2023-10-13T09:53:31;15.30;92.80
11540;DHT22;5826;54.756;9.192;2023-10-13T09:56:02;15.30;92.70
11540;DHT22;5826;54.756;9.192;2023-10-13T09:58:48;15.40;93.20
11540;DHT22;5826;54.756;9.192;2023-10-13T10:01:22;15.40;93.40
11540;DHT22;5826;54.756;9.192;2023-10-13T10:04:07;15.40;92.90
11540;DHT22;5826;54.756;9.192;2023-10-13T10:06:34;15.40;93.20
11540;DHT22;5826;54.756;9.192;2023-10-13T10:09:10;15.50;93.50
11540;DHT22;5826;54.756;9.192;2023-10-13T10:19:25;15.50;92.80
11540;DHT22;5826;54.756;9.192;2023-10-13T10:22:01;15.50;92.80
11540;DHT22;5826;54.756;9.192;2023-10-13T10:24:42;15.60;92.80
11540;DHT22;5826;54.756;9.192;2023-10-13T10:27:08;15.60;92.90
11540;DHT22;5826;54.756;9.192;2023-10-13T10:29:33;15.60;93.30
11540;DHT22;5826;54.756;9.192;2023-10-13T10:31:59;15.70;93.00
11540;DHT22;5826;54.756;9.192;2023-10-13T10:34:30;16.20;92.80
11540;DHT22;5826;54.756;9.192;2023-10-13T10:36:58;15.70;92.30
11540;DHT22;5826;54.756;9.192;2023-10-13T10:39:33;15.70;93.30
11540;DHT22;5826;54.756;9.192;2023-10-13T10:42:12;15.80;93.00
11540;DHT22;5826;54.756;9.192;2023-10-13T10:44:42;15.80;93.00
11540;DHT22;5826;54.756;9.192;2023-10-13T10:47:14;15.80;92.40
11540;DHT22;5826;54.756;9.192;2023-10-13T10:50:01;15.80;92.00
11540;DHT22;5826;54.756;9.192;2023-10-13T10:52:34;15.80;93.00
11540;DHT22;5826;54.756;9.192;2023-10-13T10:55:04;15.70;92.30
11540;DHT22;5826;54.756;9.192;2023-10-13T10:57:33;15.70;93.10
11540;DHT22;5826;54.756;9.192;2023-10-13T11:00:03;15.70;92.40
11540;DHT22;5826;54.756;9.192;2023-10-13T11:02:37;15.70;92.30
11540;DHT22;5826;54.756;9.192;2023-10-13T11:05:03;15.60;92.30
11540;DHT22;5826;54.756;9.192;2023-10-13T11:07:31;15.60;92.20
11540;DHT22;5826;54.756;9.192;2023-10-13T11:10:07;15.60;92.60
11540;DHT22;5826;54.756;9.192;2023-10-13T11:12:37;15.50;92.50
11540;DHT22;5826;54.756;9.192;2023-10-13T11:15:06;16.10;93.30
11540;DHT22;5826;54.756;9.192;2023-10-13T11:17:41;15.40;92.50
11540;DHT22;5826;54.756;9.192;2023-10-13T11:20:18;15.40;92.00
11540;DHT22;5826;54.756;9.192;2023-10-13T11:22:51;15.40;91.70
11540;DHT22;5826;54.756;9.192;2023-10-13T11:25:30;15.40;92.50
11540;DHT22;5826;54.756;9.192;2023-10-13T11:28:16;15.30;93.20
11540;DHT22;5826;54.756;9.192;2023-10-13T11:30:48;15.30;92.60
11540;DHT22;5826;54.756;9.192;2023-10-13T11:33:18;15.30;93.10
11540;DHT22;5826;54.756;9.192;2023-10-13T11:35:46;15.30;92.80
11540;DHT22;5826;54.756;9.192;2023-10-13T11:38:31;15.30;92.70
11540;DHT22;5826;54.756;9.192;2023-10-13T11:41:08;15.30;92.80
11540;DHT22;5826;54.756;9.192;2023-10-13T11:43:47;15.40;93.10
11540;DHT22;5826;54.756;9.192;2023-10-13T11:46:16;15.40;93.30
11540;DHT22;5826;54.756;9.192;2023-10-13T11:48:44;15.40;93.60
11540;DHT22;5826;54.756;9.192;2023-10-13T11:51:13;15.40;93.40
11540;DHT22;5826;54.756;9.192;2023-10-13T11:53:50;15.40;93.00
11540;DHT22;5826;54.756;9.192;2023-10-13T11:56:21;15.50;92.90
11540;DHT22;5826;54.756;9.192;2023-10-13T11:58:47;15.50;92.60
11540;DHT22;5826;54.756;9.192;2023-10-13T12:01:14;15.50;92.60
11540;DHT22;5826;54.756;9.192;2023-10-13T12:03:43;15.70;93.90
11540;DHT22;5826;54.756;9.192;2023-10-13T12:06:28;15.70;93.50
11540;DHT22;5826;54.756;9.192;2023-10-13T12:09:04;15.90;94.00
11540;DHT22;5826;54.756;9.192;2023-10-13T12:11:56;15.90;93.80
11540;DHT22;5826;54.756;9.192;2023-10-13T12:14:26;16.00;93.60
11540;DHT22;5826;54.756;9.192;2023-10-13T12:16:57;16.10;93.30
11540;DHT22;5826;54.756;9.192;2023-10-13T12:19:29;16.10;93.40
11540;DHT22;5826;54.756;9.192;2023-10-13T12:21:55;16.20;93.30
11540;DHT22;5826;54.756;9.192;2023-10-13T12:24:27;16.20;93.40
11540;DHT22;5826;54.756;9.192;2023-10-13T12:27:06;16.30;93.30
11540;DHT22;5826;54.756;9.192;2023-10-13T12:29:51;16.40;93.20
11540;DHT22;5826;54.756;9.192;2023-10-13T12:32:18;16.40;93.10
11540;DHT22;5826;54.756;9.192;2023-10-13T12:34:48;16.40;93.20
11540;DHT22;5826;54.756;9.192;2023-10-13T12:37:30;16.60;93.50
11540;DHT22;5826;54.756;9.192;2023-10-13T12:40:10;16.70;93.20
11540;DHT22;5826;54.756;9.192;2023-10-13T12:42:55;16.80;93.00
11540;DHT22;5826;54.756;9.192;2023-10-13T12:45:43;16.90;93.20
11540;DHT22;5826;54.756;9.192;2023-10-13T12:48:28;16.90;93.00
11540;DHT22;5826;54.756;9.192;2023-10-13T12:51:12;17.00;93.00
11540;DHT22;5826;54.756;9.192;2023-10-13T12:53:54;17.00;92.50
11540;DHT22;5826;54.756;9.192;2023-10-13T12:56:20;17.10;92.80
11540;DHT22;5826;54.756;9.192;2023-10-13T12:58:52;17.10;92.80
11540;DHT22;5826;54.756;9.192;2023-10-13T13:01:18;17.10;92.50
11540;DHT22;5826;54.756;9.192;2023-10-13T13:03:48;17.20;92.50
11540;DHT22;5826;54.756;9.192;2023-10-13T13:06:22;17.10;92.30
11540;DHT22;5826;54.756;9.192;2023-10-13T13:08:55;17.10;92.40
11540;DHT22;5826;54.756;9.192;2023-10-13T13:11:21;17.20;92.60
11540;DHT22;5826;54.756;9.192;2023-10-13T13:13:47;17.20;92.50
11540;DHT22;5826;54.756;9.192;2023-10-13T13:16:17;17.10;92.20
11540;DHT22;5826;54.756;9.192;2023-10-13T13:18:53;17.20;92.20
11540;DHT22;5826;54.756;9.192;2023-10-13T13:21:20;17.20;91.90
11540;DHT22;5826;54.756;9.192;2023-10-13T13:23:48;17.20;92.20
11540;DHT22;5826;54.756;9.192;2023-10-13T13:26:14;17.20;92.10
11540;DHT22;5826;54.756;9.192;2023-10-13T13:28:46;17.30;92.60
11540;DHT22;5826;54.756;9.192;2023-10-13T13:31:16;17.30;92.20
11540;DHT22;5826;54.756;9.192;2023-10-13T13:33:42;17.40;92.10
11540;DHT22;5826;54.756;9.192;2023-10-13T13:36:11;17.40;91.70
11540;DHT22;5826;54.756;9.192;2023-10-13T13:38:43;17.40;91.60
11540;DHT22;5826;54.756;9.192;2023-10-13T13:41:17;17.40;91.90
11540;DHT22;5826;54.756;9.192;2023-10-13T13:43:52;17.40;91.60
11540;DHT22;5826;54.756;9.192;2023-10-13T13:46:25;17.40;91.50
11540;DHT22;5826;54.756;9.192;2023-10-13T13:48:58;17.50;91.80
11540;DHT22;5826;54.756;9.192;2023-10-13T13:51:25;17.50;91.50
11540;DHT22;5826;54.756;9.192;2023-10-13T13:53:55;17.50;91.50
11540;DHT22;5826;54.756;9.192;2023-10-13T13:56:21;17.60;91.70
11540;DHT22;5826;54.756;9.192;2023-10-13T13:58:51;17.60;91.40
11540;DHT22;5826;54.756;9.192;2023-10-13T14:01:18;17.70;91.10
11540;DHT22;5826;54.756;9.192;2023-10-13T14:03:46;17.70;91.10
11540;DHT22;5826;54.756;9.192;2023-10-13T14:06:16;17.70;90.80
11540;DHT22;5826;54.756;9.192;2023-10-13T14:08:58;17.80;90.80
11540;DHT22;5826;54.756;9.192;2023-10-13T14:11:40;17.80;90.40
11540;DHT22;5826;54.756;9.192;2023-10-13T14:16:41;17.80;89.80
11540;DHT22;5826;54.756;9.192;2023-10-13T14:19:11;17.90;89.70
11540;DHT22;5826;54.756;9.192;2023-10-13T14:21:38;17.80;89.60
11540;DHT22;5826;54.756;9.192;2023-10-13T14:24:04;17.80;89.80
11540;DHT22;5826;54.756;9.192;2023-10-13T14:26:39;17.70;89.60
11540;DHT22;5826;54.756;9.192;2023-10-13T14:29:05;17.60;89.90
11540;DHT22;5826;54.756;9.192;2023-10-13T14:31:34;17.60;89.90
11540;DHT22;5826;54.756;9.192;2023-10-13T14:34:01;17.50;90.00
11540;DHT22;5826;54.756;9.192;2023-10-13T14:36:27;17.50;90.30
11540;DHT22;5826;54.756;9.192;2023-10-13T14:38:57;17.40;90.20
11540;DHT22;5826;54.756;9.192;2023-10-13T14:41:23;17.40;90.30
11540;DHT22;5826;54.756;9.192;2023-10-13T14:43:49;17.40;90.30
11540;DHT22;5826;54.756;9.192;2023-10-13T14:46:18;17.40;90.30
11540;DHT22;5826;54.756;9.192;2023-10-13T14:48:48;17.40;90.30
11540;DHT22;5826;54.756;9.192;2023-10-13T14:51:14;17.40;90.60
11540;DHT22;5826;54.756;9.192;2023-10-13T14:53:46;17.30;90.30
11540;DHT22;5826;54.756;9.192;2023-10-13T14:56:12;17.30;90.40
11540;DHT22;5826;54.756;9.192;2023-10-13T14:58:38;17.30;90.30
11540;DHT22;5826;54.756;9.192;2023-10-13T15:01:14;17.30;90.30
11540;DHT22;5826;54.756;9.192;2023-10-13T15:03:42;17.20;90.40
11540;DHT22;5826;54.756;9.192;2023-10-13T15:06:07;17.30;90.60
11540;DHT22;5826;54.756;9.192;2023-10-13T15:08:33;17.20;91.10
11540;DHT22;5826;54.756;9.192;2023-10-13T15:11:08;17.20;91.10
11540;DHT22;5826;54.756;9.192;2023-10-13T15:13:38;17.10;91.20
11540;DHT22;5826;54.756;9.192;2023-10-13T15:16:13;17.10;91.60
11540;DHT22;5826;54.756;9.192;2023-10-13T15:18:40;17.10;92.00
11540;DHT22;5826;54.756;9.192;2023-10-13T15:21:06;17.10;91.70
11540;DHT22;5826;54.756;9.192;2023-10-13T15:23:34;17.00;91.80
11540;DHT22;5826;54.756;9.192;2023-10-13T15:26:10;17.00;92.60
11540;DHT22;5826;54.756;9.192;2023-10-13T15:28:38;17.10;92.00
11540;DHT22;5826;54.756;9.192;2023-10-13T15:31:11;17.10;92.10
11540;DHT22;5826;54.756;9.192;2023-10-13T15:33:50;17.10;92.40
11540;DHT22;5826;54.756;9.192;2023-10-13T15:36:23;17.10;92.00
11540;DHT22;5826;54.756;9.192;2023-10-13T15:38:52;17.10;92.20
11540;DHT22;5826;54.756;9.192;2023-10-13T15:41:25;17.10;92.10
11540;DHT22;5826;54.756;9.192;2023-10-13T15:43:51;17.10;92.10
11540;DHT22;5826;54.756;9.192;2023-10-13T15:46:19;17.10;91.60
11540;DHT22;5826;54.756;9.192;2023-10-13T15:48:48;17.10;91.80
11540;DHT22;5826;54.756;9.192;2023-10-13T15:51:14;17.10;91.90
11540;DHT22;5826;54.756;9.192;2023-10-13T15:53:41;17.10;91.80
11540;DHT22;5826;54.756;9.192;2023-10-13T15:56:08;17.10;91.90
11540;DHT22;5826;54.756;9.192;2023-10-13T15:58:47;17.20;91.60
11540;DHT22;5826;54.756;9.192;2023-10-13T16:01:13;17.20;91.70
11540;DHT22;5826;54.756;9.192;2023-10-13T16:03:44;17.30;91.40
11540;DHT22;5826;54.756;9.192;2023-10-13T16:06:15;17.30;91.40
11540;DHT22;5826;54.756;9.192;2023-10-13T16:08:41;17.30;91.20
11540;DHT22;5826;54.756;9.192;2023-10-13T16:11:14;17.30;91.20
11540;DHT22;5826;54.756;9.192;2023-10-13T16:13:43;17.30;91.40
11540;DHT22;5826;54.756;9.192;2023-10-13T16:16:14;17.30;91.60
11540;DHT22;5826;54.756;9.192;2023-10-13T16:18:41;17.30;91.80
11540;DHT22;5826;54.756;9.192;2023-10-13T16:21:09;17.30;91.60
11540;DHT22;5826;54.756;9.192;2023-10-13T16:23:34;17.30;91.70
11540;DHT22;5826;54.756;9.192;2023-10-13T16:26:00;17.30;91.90
11540;DHT22;5826;54.756;9.192;2023-10-13T16:28:29;17.30;91.70
11540;DHT22;5826;54.756;9.192;2023-10-13T16:31:00;17.30;91.50
11540;DHT22;5826;54.756;9.192;2023-10-13T16:33:25;17.30;91.60
11540;DHT22;5826;54.756;9.192;2023-10-13T16:35:53;17.30;91.40
11540;DHT22;5826;54.756;9.192;2023-10-13T16:38:19;17.30;91.50